sensor_id;sensor_type;location;lat;lon;timestamp;temperature;humidity
21493;DHT22;10908;50.690;4.400;2023-12-14T00:00:21;10.00;87.80
21493;DHT22;10908;50.690;4.400;2023-12-14T00:02:46;9.90;88.00
21493;DHT22;10908;50.690;4.400;2023-12-14T00:05:12;9.90;88.20
21493;DHT22;10908;50.690;4.400;2023-12-14T00:07:37;9.90;88.30
21493;DHT22;10908;50.690;4.400;2023-12-14T00:10:03;9.90;88.20
21493;DHT22;10908;50.690;4.400;2023-12-14T00:12:30;9.80;88.30
21493;DHT22;10908;50.690;4.400;2023-12-14T00:14:56;9.70;88.60
21493;DHT22;10908;50.690;4.400;2023-12-14T00:17:22;9.80;88.80
21493;DHT22;10908;50.690;4.400;2023-12-14T00:19:48;9.90;88.70
21493;DHT22;10908;50.690;4.400;2023-12-14T00:22:13;9.90;88.70
21493;DHT22;10908;50.690;4.400;2023-12-14T00:24:39;9.90;88.40
21493;DHT22;10908;50.690;4.400;2023-12-14T00:27:08;9.90;88.50
21493;DHT22;10908;50.690;4.400;2023-12-14T00:29:33;9.70;88.60
21493;DHT22;10908;50.690;4.400;2023-12-14T00:31:59;9.60;88.90
21493;DHT22;10908;50.690;4.400;2023-12-14T00:34:25;9.60;89.20
21493;DHT22;10908;50.690;4.400;2023-12-14T00:36:50;9.70;89.10
21493;DHT22;10908;50.690;4.400;2023-12-14T00:39:16;9.50;89.30
21493;DHT22;10908;50.690;4.400;2023-12-14T00:41:41;9.60;89.40
21493;DHT22;10908;50.690;4.400;2023-12-14T00:44:07;9.60;89.60
21493;DHT22;10908;50.690;4.400;2023-12-14T00:46:33;9.70;89.50
21493;DHT22;10908;50.690;4.400;2023-12-14T00:48:58;9.80;89.60
21493;DHT22;10908;50.690;4.400;2023-12-14T00:51:24;9.90;89.50
21493;DHT22;10908;50.690;4.400;2023-12-14T00:53:50;9.90;89.50
21493;DHT22;10908;50.690;4.400;2023-12-14T00:56:15;10.00;89.30
21493;DHT22;10908;50.690;4.400;2023-12-14T00:58:41;10.00;89.10
21493;DHT22;10908;50.690;4.400;2023-12-14T01:01:07;9.90;88.70
21493;DHT22;10908;50.690;4.400;2023-12-14T01:03:32;9.90;88.70
21493;DHT22;10908;50.690;4.400;2023-12-14T01:05:58;9.90;88.60
21493;DHT22;10908;50.690;4.400;2023-12-14T01:08:24;9.90;88.70
21493;DHT22;10908;50.690;4.400;2023-12-14T01:10:49;9.90;88.80
21493;DHT22;10908;50.690;4.400;2023-12-14T01:13:15;10.10;88.50
21493;DHT22;10908;50.690;4.400;2023-12-14T01:15:41;10.00;88.50
21493;DHT22;10908;50.690;4.400;2023-12-14T01:18:06;10.00;88.50
21493;DHT22;10908;50.690;4.400;2023-12-14T01:20:32;9.90;88.40
21493;DHT22;10908;50.690;4.400;2023-12-14T01:22:58;9.90;88.50
21493;DHT22;10908;50.690;4.400;2023-12-14T01:25:24;9.90;88.60
21493;DHT22;10908;50.690;4.400;2023-12-14T01:27:49;10.00;88.70
21493;DHT22;10908;50.690;4.400;2023-12-14T01:30:15;10.10;88.70
21493;DHT22;10908;50.690;4.400;2023-12-14T01:32:41;10.00;88.50
21493;DHT22;10908;50.690;4.400;2023-12-14T01:35:06;10.00;88.40
21493;DHT22;10908;50.690;4.400;2023-12-14T01:37:32;9.90;88.40
21493;DHT22;10908;50.690;4.400;2023-12-14T01:39:58;9.90;88.40
21493;DHT22;10908;50.690;4.400;2023-12-14T01:42:23;9.90;88.50
21493;DHT22;10908;50.690;4.400;2023-12-14T01:44:49;10.10;88.40
21493;DHT22;10908;50.690;4.400;2023-12-14T01:47:15;10.10;88.30
21493;DHT22;10908;50.690;4.400;2023-12-14T01:49:40;10.00;88.10
21493;DHT22;10908;50.690;4.400;2023-12-14T01:52:07;10.10;87.90
21493;DHT22;10908;50.690;4.400;2023-12-14T01:54:33;10.00;87.70
21493;DHT22;10908;50.690;4.400;2023-12-14T01:56:59;10.00;87.80
21493;DHT22;10908;50.690;4.400;2023-12-14T01:59:25;9.90;87.90
21493;DHT22;10908;50.690;4.400;2023-12-14T02:01:56;10.00;88.10
21493;DHT22;10908;50.690;4.400;2023-12-14T02:04:23;10.00;88.10
21493;DHT22;10908;50.690;4.400;2023-12-14T02:06:49;9.90;88.00
21493;DHT22;10908;50.690;4.400;2023-12-14T02:09:15;9.90;88.00
21493;DHT22;10908;50.690;4.400;2023-12-14T02:11:41;9.90;88.00
21493;DHT22;10908;50.690;4.400;2023-12-14T02:14:08;9.90;88.10
21493;DHT22;10908;50.690;4.400;2023-12-14T02:16:34;9.80;88.10
21493;DHT22;10908;50.690;4.400;2023-12-14T02:19:00;9.90;88.00
21493;DHT22;10908;50.690;4.400;2023-12-14T02:21:26;9.90;88.10
21493;DHT22;10908;50.690;4.400;2023-12-14T02:23:51;9.80;88.10
21493;DHT22;10908;50.690;4.400;2023-12-14T02:26:17;9.70;88.30
21493;DHT22;10908;50.690;4.400;2023-12-14T02:28:43;9.70;88.30
21493;DHT22;10908;50.690;4.400;2023-12-14T02:31:08;9.70;88.10
21493;DHT22;10908;50.690;4.400;2023-12-14T02:33:34;9.60;88.00
21493;DHT22;10908;50.690;4.400;2023-12-14T02:36:00;9.60;88.10
21493;DHT22;10908;50.690;4.400;2023-12-14T02:38:26;9.60;88.20
21493;DHT22;10908;50.690;4.400;2023-12-14T02:40:51;9.50;88.20
21493;DHT22;10908;50.690;4.400;2023-12-14T02:43:18;9.40;88.40
21493;DHT22;10908;50.690;4.400;2023-12-14T02:45:44;9.30;88.30
21493;DHT22;10908;50.690;4.400;2023-12-14T02:48:10;9.30;88.60
21493;DHT22;10908;50.690;4.400;2023-12-14T02:50:36;9.40;88.70
21493;DHT22;10908;50.690;4.400;2023-12-14T02:53:01;9.40;88.90
21493;DHT22;10908;50.690;4.400;2023-12-14T02:55:27;9.40;88.80
21493;DHT22;10908;50.690;4.400;2023-12-14T02:57:53;9.40;88.90
21493;DHT22;10908;50.690;4.400;2023-12-14T03:00:19;9.50;88.60
21493;DHT22;10908;50.690;4.400;2023-12-14T03:02:45;9.50;88.50
21493;DHT22;10908;50.690;4.400;2023-12-14T03:05:10;9.50;88.40
21493;DHT22;10908;50.690;4.400;2023-12-14T03:07:36;9.40;88.30
21493;DHT22;10908;50.690;4.400;2023-12-14T03:10:03;9.50;88.30
21493;DHT22;10908;50.690;4.400;2023-12-14T03:12:29;9.50;88.30
21493;DHT22;10908;50.690;4.400;2023-12-14T03:14:55;9.60;88.30
21493;DHT22;10908;50.690;4.400;2023-12-14T03:17:21;9.70;88.30
21493;DHT22;10908;50.690;4.400;2023-12-14T03:19:46;9.70;88.20
21493;DHT22;10908;50.690;4.400;2023-12-14T03:22:12;9.60;87.90
21493;DHT22;10908;50.690;4.400;2023-12-14T03:24:38;9.60;87.70
21493;DHT22;10908;50.690;4.400;2023-12-14T03:27:04;9.50;87.90
21493;DHT22;10908;50.690;4.400;2023-12-14T03:29:30;9.50;87.90
21493;DHT22;10908;50.690;4.400;2023-12-14T03:31:56;9.40;88.00
21493;DHT22;10908;50.690;4.400;2023-12-14T03:34:22;9.20;88.10
21493;DHT22;10908;50.690;4.400;2023-12-14T03:36:48;9.20;88.50
21493;DHT22;10908;50.690;4.400;2023-12-14T03:39:13;9.00;88.50
21493;DHT22;10908;50.690;4.400;2023-12-14T03:41:40;9.00;89.00
21493;DHT22;10908;50.690;4.400;2023-12-14T03:44:05;9.10;89.10
21493;DHT22;10908;50.690;4.400;2023-12-14T03:46:31;9.10;89.00
21493;DHT22;10908;50.690;4.400;2023-12-14T03:48:57;9.10;88.90
21493;DHT22;10908;50.690;4.400;2023-12-14T03:51:23;9.10;88.60
21493;DHT22;10908;50.690;4.400;2023-12-14T03:53:48;9.10;88.50
21493;DHT22;10908;50.690;4.400;2023-12-14T03:56:14;9.10;88.60
21493;DHT22;10908;50.690;4.400;2023-12-14T03:58:39;9.10;88.80
21493;DHT22;10908;50.690;4.400;2023-12-14T04:01:05;9.00;88.80
21493;DHT22;10908;50.690;4.400;2023-12-14T04:03:31;8.90;89.00
21493;DHT22;10908;50.690;4.400;2023-12-14T04:05:57;8.80;89.10
21493;DHT22;10908;50.690;4.400;2023-12-14T04:08:23;8.90;89.60
21493;DHT22;10908;50.690;4.400;2023-12-14T04:10:48;8.90;89.40
21493;DHT22;10908;50.690;4.400;2023-12-14T04:13:14;8.70;89.10
21493;DHT22;10908;50.690;4.400;2023-12-14T04:15:40;8.40;89.00
21493;DHT22;10908;50.690;4.400;2023-12-14T04:18:07;8.40;89.10
21493;DHT22;10908;50.690;4.400;2023-12-14T04:20:34;8.40;88.80
21493;DHT22;10908;50.690;4.400;2023-12-14T04:22:59;8.30;88.60
21493;DHT22;10908;50.690;4.400;2023-12-14T04:25:25;8.20;89.00
21493;DHT22;10908;50.690;4.400;2023-12-14T04:27:50;8.20;88.90
21493;DHT22;10908;50.690;4.400;2023-12-14T04:30:16;8.40;89.10
21493;DHT22;10908;50.690;4.400;2023-12-14T04:32:42;8.30;88.80
21493;DHT22;10908;50.690;4.400;2023-12-14T04:35:08;8.20;89.10
21493;DHT22;10908;50.690;4.400;2023-12-14T04:37:33;8.20;89.20
21493;DHT22;10908;50.690;4.400;2023-12-14T04:39:59;8.10;89.00
21493;DHT22;10908;50.690;4.400;2023-12-14T04:42:25;8.10;88.70
21493;DHT22;10908;50.690;4.400;2023-12-14T04:44:51;8.10;88.80
21493;DHT22;10908;50.690;4.400;2023-12-14T04:47:17;8.20;88.40
21493;DHT22;10908;50.690;4.400;2023-12-14T04:49:42;8.10;87.90
21493;DHT22;10908;50.690;4.400;2023-12-14T04:52:08;8.10;87.70
21493;DHT22;10908;50.690;4.400;2023-12-14T04:54:34;8.10;87.20
21493;DHT22;10908;50.690;4.400;2023-12-14T04:57:03;7.90;87.20
21493;DHT22;10908;50.690;4.400;2023-12-14T04:59:29;7.50;87.70
21493;DHT22;10908;50.690;4.400;2023-12-14T05:01:55;7.60;88.00
21493;DHT22;10908;50.690;4.400;2023-12-14T05:04:20;7.70;87.90
21493;DHT22;10908;50.690;4.400;2023-12-14T05:06:46;7.70;87.70
21493;DHT22;10908;50.690;4.400;2023-12-14T05:09:12;7.80;87.40
21493;DHT22;10908;50.690;4.400;2023-12-14T05:11:40;7.90;87.20
21493;DHT22;10908;50.690;4.400;2023-12-14T05:14:06;7.90;87.20
21493;DHT22;10908;50.690;4.400;2023-12-14T05:16:31;7.90;87.00
21493;DHT22;10908;50.690;4.400;2023-12-14T05:18:57;8.00;86.90
21493;DHT22;10908;50.690;4.400;2023-12-14T05:21:23;7.90;86.40
21493;DHT22;10908;50.690;4.400;2023-12-14T05:23:49;7.90;86.40
21493;DHT22;10908;50.690;4.400;2023-12-14T05:26:14;8.10;86.30
21493;DHT22;10908;50.690;4.400;2023-12-14T05:28:40;8.20;85.80
21493;DHT22;10908;50.690;4.400;2023-12-14T05:31:06;8.00;85.90
21493;DHT22;10908;50.690;4.400;2023-12-14T05:33:35;8.00;85.90
21493;DHT22;10908;50.690;4.400;2023-12-14T05:36:01;8.00;85.90
21493;DHT22;10908;50.690;4.400;2023-12-14T05:38:27;8.10;86.00
21493;DHT22;10908;50.690;4.400;2023-12-14T05:40:52;8.10;85.60
21493;DHT22;10908;50.690;4.400;2023-12-14T05:43:18;8.10;85.60
21493;DHT22;10908;50.690;4.400;2023-12-14T05:45:44;8.10;85.50
21493;DHT22;10908;50.690;4.400;2023-12-14T05:48:09;8.10;85.20
21493;DHT22;10908;50.690;4.400;2023-12-14T05:50:35;8.20;85.30
21493;DHT22;10908;50.690;4.400;2023-12-14T05:53:01;8.10;85.00
21493;DHT22;10908;50.690;4.400;2023-12-14T05:58:03;8.10;85.00
21493;DHT22;10908;50.690;4.400;2023-12-14T06:00:28;8.10;85.00
21493;DHT22;10908;50.690;4.400;2023-12-14T06:02:54;8.00;84.90
21493;DHT22;10908;50.690;4.400;2023-12-14T06:05:20;8.00;85.40
21493;DHT22;10908;50.690;4.400;2023-12-14T06:07:45;7.90;85.40
21493;DHT22;10908;50.690;4.400;2023-12-14T06:10:11;8.00;85.40
21493;DHT22;10908;50.690;4.400;2023-12-14T06:12:37;8.00;85.20
21493;DHT22;10908;50.690;4.400;2023-12-14T06:15:04;8.00;84.80
21493;DHT22;10908;50.690;4.400;2023-12-14T06:17:30;8.00;84.80
21493;DHT22;10908;50.690;4.400;2023-12-14T06:19:57;8.00;84.90
21493;DHT22;10908;50.690;4.400;2023-12-14T06:22:22;8.10;84.90
21493;DHT22;10908;50.690;4.400;2023-12-14T06:24:48;8.20;84.80
21493;DHT22;10908;50.690;4.400;2023-12-14T06:27:14;8.10;84.30
21493;DHT22;10908;50.690;4.400;2023-12-14T06:29:39;8.10;84.20
21493;DHT22;10908;50.690;4.400;2023-12-14T06:32:06;8.20;84.20
21493;DHT22;10908;50.690;4.400;2023-12-14T06:34:31;8.20;84.10
21493;DHT22;10908;50.690;4.400;2023-12-14T06:36:57;8.20;83.90
21493;DHT22;10908;50.690;4.400;2023-12-14T06:39:25;8.10;83.80
21493;DHT22;10908;50.690;4.400;2023-12-14T06:41:53;8.10;84.00
21493;DHT22;10908;50.690;4.400;2023-12-14T06:44:18;8.10;84.30
21493;DHT22;10908;50.690;4.400;2023-12-14T06:46:44;8.00;84.50
21493;DHT22;10908;50.690;4.400;2023-12-14T06:49:10;8.00;84.30
21493;DHT22;10908;50.690;4.400;2023-12-14T06:51:35;8.10;84.20
21493;DHT22;10908;50.690;4.400;2023-12-14T06:54:01;8.10;84.00
21493;DHT22;10908;50.690;4.400;2023-12-14T06:56:27;8.00;84.10
21493;DHT22;10908;50.690;4.400;2023-12-14T06:58:53;8.00;84.10
21493;DHT22;10908;50.690;4.400;2023-12-14T07:01:19;8.00;84.00
21493;DHT22;10908;50.690;4.400;2023-12-14T07:03:44;8.10;83.70
21493;DHT22;10908;50.690;4.400;2023-12-14T07:06:14;8.30;83.60
21493;DHT22;10908;50.690;4.400;2023-12-14T07:08:41;8.10;83.60
21493;DHT22;10908;50.690;4.400;2023-12-14T07:11:10;8.10;83.80
21493;DHT22;10908;50.690;4.400;2023-12-14T07:13:36;8.10;83.50
21493;DHT22;10908;50.690;4.400;2023-12-14T07:16:10;8.10;83.50
21493;DHT22;10908;50.690;4.400;2023-12-14T07:18:37;7.90;83.50
21493;DHT22;10908;50.690;4.400;2023-12-14T07:21:04;7.90;84.00
21493;DHT22;10908;50.690;4.400;2023-12-14T07:23:30;7.90;84.00
21493;DHT22;10908;50.690;4.400;2023-12-14T07:25:56;7.90;83.80
21493;DHT22;10908;50.690;4.400;2023-12-14T07:28:22;7.70;82.80
21493;DHT22;10908;50.690;4.400;2023-12-14T07:30:48;7.50;83.50
21493;DHT22;10908;50.690;4.400;2023-12-14T07:33:17;7.60;83.60
21493;DHT22;10908;50.690;4.400;2023-12-14T07:35:43;7.60;83.60
21493;DHT22;10908;50.690;4.400;2023-12-14T07:38:10;7.60;83.40
21493;DHT22;10908;50.690;4.400;2023-12-14T07:40:36;7.60;83.30
21493;DHT22;10908;50.690;4.400;2023-12-14T07:43:01;7.60;83.10
21493;DHT22;10908;50.690;4.400;2023-12-14T07:45:27;7.60;82.90
21493;DHT22;10908;50.690;4.400;2023-12-14T07:47:53;7.70;82.80
21493;DHT22;10908;50.690;4.400;2023-12-14T07:50:19;7.80;82.50
21493;DHT22;10908;50.690;4.400;2023-12-14T07:52:45;7.80;82.20
21493;DHT22;10908;50.690;4.400;2023-12-14T07:55:10;7.90;82.00
21493;DHT22;10908;50.690;4.400;2023-12-14T07:57:38;7.90;81.90
21493;DHT22;10908;50.690;4.400;2023-12-14T08:00:05;8.00;81.80
21493;DHT22;10908;50.690;4.400;2023-12-14T08:02:31;8.00;81.70
21493;DHT22;10908;50.690;4.400;2023-12-14T08:04:56;8.00;81.60
21493;DHT22;10908;50.690;4.400;2023-12-14T08:07:22;7.80;81.80
21493;DHT22;10908;50.690;4.400;2023-12-14T08:09:48;7.80;82.40
21493;DHT22;10908;50.690;4.400;2023-12-14T08:12:13;7.80;82.40
21493;DHT22;10908;50.690;4.400;2023-12-14T08:14:39;7.50;83.10
21493;DHT22;10908;50.690;4.400;2023-12-14T08:17:09;7.40;84.00
21493;DHT22;10908;50.690;4.400;2023-12-14T08:19:35;7.70;83.90
21493;DHT22;10908;50.690;4.400;2023-12-14T08:22:00;7.60;83.80
21493;DHT22;10908;50.690;4.400;2023-12-14T08:24:26;7.70;83.90
21493;DHT22;10908;50.690;4.400;2023-12-14T08:26:51;7.80;83.60
21493;DHT22;10908;50.690;4.400;2023-12-14T08:29:17;7.90;83.20
21493;DHT22;10908;50.690;4.400;2023-12-14T08:31:43;8.20;82.70
21493;DHT22;10908;50.690;4.400;2023-12-14T08:34:08;8.20;82.00
21493;DHT22;10908;50.690;4.400;2023-12-14T08:36:34;8.40;81.70
21493;DHT22;10908;50.690;4.400;2023-12-14T08:39:00;8.10;81.90
21493;DHT22;10908;50.690;4.400;2023-12-14T08:41:25;7.80;82.70
21493;DHT22;10908;50.690;4.400;2023-12-14T08:43:51;7.60;83.60
21493;DHT22;10908;50.690;4.400;2023-12-14T08:46:17;7.80;84.10
21493;DHT22;10908;50.690;4.400;2023-12-14T08:48:42;8.10;83.40
21493;DHT22;10908;50.690;4.400;2023-12-14T08:51:08;8.30;83.00
21493;DHT22;10908;50.690;4.400;2023-12-14T08:53:34;8.40;82.70
21493;DHT22;10908;50.690;4.400;2023-12-14T08:55:59;8.30;82.60
21493;DHT22;10908;50.690;4.400;2023-12-14T08:58:25;8.20;82.40
21493;DHT22;10908;50.690;4.400;2023-12-14T09:00:51;8.10;82.80
21493;DHT22;10908;50.690;4.400;2023-12-14T09:03:21;8.00;82.80
21493;DHT22;10908;50.690;4.400;2023-12-14T09:05:46;8.20;82.70
21493;DHT22;10908;50.690;4.400;2023-12-14T09:08:12;8.20;82.70
21493;DHT22;10908;50.690;4.400;2023-12-14T09:10:38;8.30;82.50
21493;DHT22;10908;50.690;4.400;2023-12-14T09:13:04;8.20;82.20
21493;DHT22;10908;50.690;4.400;2023-12-14T09:15:34;8.40;82.40
21493;DHT22;10908;50.690;4.400;2023-12-14T09:17:59;8.40;82.20
21493;DHT22;10908;50.690;4.400;2023-12-14T09:20:25;8.40;82.10
21493;DHT22;10908;50.690;4.400;2023-12-14T09:22:52;8.40;81.70
21493;DHT22;10908;50.690;4.400;2023-12-14T09:25:17;8.40;81.70
21493;DHT22;10908;50.690;4.400;2023-12-14T09:27:43;8.50;81.50
21493;DHT22;10908;50.690;4.400;2023-12-14T09:30:09;8.60;81.00
21493;DHT22;10908;50.690;4.400;2023-12-14T09:32:36;8.60;80.40
21493;DHT22;10908;50.690;4.400;2023-12-14T09:35:01;8.60;80.20
21493;DHT22;10908;50.690;4.400;2023-12-14T09:37:27;8.70;79.90
21493;DHT22;10908;50.690;4.400;2023-12-14T09:39:53;8.80;79.60
21493;DHT22;10908;50.690;4.400;2023-12-14T09:42:20;8.60;79.70
21493;DHT22;10908;50.690;4.400;2023-12-14T09:44:47;8.60;79.70
21493;DHT22;10908;50.690;4.400;2023-12-14T09:47:13;8.50;79.90
21493;DHT22;10908;50.690;4.400;2023-12-14T09:49:40;8.50;79.80
21493;DHT22;10908;50.690;4.400;2023-12-14T09:52:08;8.40;79.40
21493;DHT22;10908;50.690;4.400;2023-12-14T09:54:34;8.60;79.20
21493;DHT22;10908;50.690;4.400;2023-12-14T09:57:00;8.70;79.20
21493;DHT22;10908;50.690;4.400;2023-12-14T09:59:26;8.80;79.20
21493;DHT22;10908;50.690;4.400;2023-12-14T10:01:52;8.80;78.90
21493;DHT22;10908;50.690;4.400;2023-12-14T10:04:19;8.80;78.60
21493;DHT22;10908;50.690;4.400;2023-12-14T10:06:47;8.70;78.80
21493;DHT22;10908;50.690;4.400;2023-12-14T10:09:13;8.50;78.90
21493;DHT22;10908;50.690;4.400;2023-12-14T10:11:41;8.40;78.80
21493;DHT22;10908;50.690;4.400;2023-12-14T10:14:21;8.40;79.00
21493;DHT22;10908;50.690;4.400;2023-12-14T10:16:49;8.50;78.60
21493;DHT22;10908;50.690;4.400;2023-12-14T10:19:16;8.60;78.90
21493;DHT22;10908;50.690;4.400;2023-12-14T10:21:42;8.60;78.80
21493;DHT22;10908;50.690;4.400;2023-12-14T10:24:08;8.60;78.80
21493;DHT22;10908;50.690;4.400;2023-12-14T10:26:34;8.80;78.80
21493;DHT22;10908;50.690;4.400;2023-12-14T10:29:01;8.80;78.50
21493;DHT22;10908;50.690;4.400;2023-12-14T10:31:31;8.80;79.00
21493;DHT22;10908;50.690;4.400;2023-12-14T10:33:57;8.80;79.30
21493;DHT22;10908;50.690;4.400;2023-12-14T10:36:25;8.80;79.10
21493;DHT22;10908;50.690;4.400;2023-12-14T10:38:53;8.80;78.90
21493;DHT22;10908;50.690;4.400;2023-12-14T10:41:21;8.90;78.40
21493;DHT22;10908;50.690;4.400;2023-12-14T10:43:48;8.70;79.00
21493;DHT22;10908;50.690;4.400;2023-12-14T10:46:18;8.80;79.10
21493;DHT22;10908;50.690;4.400;2023-12-14T10:48:45;8.80;79.10
21493;DHT22;10908;50.690;4.400;2023-12-14T10:51:12;8.80;78.80
21493;DHT22;10908;50.690;4.400;2023-12-14T10:53:38;8.80;78.20
21493;DHT22;10908;50.690;4.400;2023-12-14T10:56:06;8.90;78.30
21493;DHT22;10908;50.690;4.400;2023-12-14T10:58:45;8.90;78.50
21493;DHT22;10908;50.690;4.400;2023-12-14T11:01:15;8.90;77.70
21493;DHT22;10908;50.690;4.400;2023-12-14T11:03:42;8.90;77.70
21493;DHT22;10908;50.690;4.400;2023-12-14T11:06:32;8.90;78.20
21493;DHT22;10908;50.690;4.400;2023-12-14T11:09:01;8.90;78.10
21493;DHT22;10908;50.690;4.400;2023-12-14T11:11:41;9.00;78.00
21493;DHT22;10908;50.690;4.400;2023-12-14T11:14:11;9.00;78.10
21493;DHT22;10908;50.690;4.400;2023-12-14T11:16:38;9.00;78.10
21493;DHT22;10908;50.690;4.400;2023-12-14T11:24:31;9.20;78.30
21493;DHT22;10908;50.690;4.400;2023-12-14T11:26:57;9.20;78.50
21493;DHT22;10908;50.690;4.400;2023-12-14T11:29:23;9.10;78.70
21493;DHT22;10908;50.690;4.400;2023-12-14T11:31:48;9.10;78.40
21493;DHT22;10908;50.690;4.400;2023-12-14T11:34:15;9.10;78.50
21493;DHT22;10908;50.690;4.400;2023-12-14T11:36:41;9.20;78.70
21493;DHT22;10908;50.690;4.400;2023-12-14T11:39:10;9.30;78.70
21493;DHT22;10908;50.690;4.400;2023-12-14T11:41:36;9.20;78.50
21493;DHT22;10908;50.690;4.400;2023-12-14T11:44:04;9.30;78.40
21493;DHT22;10908;50.690;4.400;2023-12-14T11:46:30;9.30;78.40
21493;DHT22;10908;50.690;4.400;2023-12-14T11:48:58;9.20;78.60
21493;DHT22;10908;50.690;4.400;2023-12-14T11:51:24;9.30;78.90
21493;DHT22;10908;50.690;4.400;2023-12-14T11:53:51;9.20;79.00
21493;DHT22;10908;50.690;4.400;2023-12-14T11:56:18;9.20;79.20
21493;DHT22;10908;50.690;4.400;2023-12-14T11:58:44;9.30;79.20
21493;DHT22;10908;50.690;4.400;2023-12-14T12:01:18;9.20;79.90
21493;DHT22;10908;50.690;4.400;2023-12-14T12:03:45;9.20;80.30
21493;DHT22;10908;50.690;4.400;2023-12-14T12:06:27;9.20;80.10
21493;DHT22;10908;50.690;4.400;2023-12-14T12:08:58;9.10;80.40
21493;DHT22;10908;50.690;4.400;2023-12-14T12:11:25;9.10;80.30
21493;DHT22;10908;50.690;4.400;2023-12-14T12:13:56;9.10;80.40
21493;DHT22;10908;50.690;4.400;2023-12-14T12:16:22;9.10;81.10
21493;DHT22;10908;50.690;4.400;2023-12-14T12:18:48;9.10;81.70
21493;DHT22;10908;50.690;4.400;2023-12-14T12:21:16;9.10;81.70
21493;DHT22;10908;50.690;4.400;2023-12-14T12:23:41;8.90;82.10
21493;DHT22;10908;50.690;4.400;2023-12-14T12:26:07;9.10;82.20
21493;DHT22;10908;50.690;4.400;2023-12-14T12:28:33;9.10;82.20
21493;DHT22;10908;50.690;4.400;2023-12-14T12:30:59;9.20;82.00
21493;DHT22;10908;50.690;4.400;2023-12-14T12:33:25;9.10;82.00
21493;DHT22;10908;50.690;4.400;2023-12-14T12:35:51;9.10;82.10
21493;DHT22;10908;50.690;4.400;2023-12-14T12:38:17;9.10;82.20
21493;DHT22;10908;50.690;4.400;2023-12-14T12:40:44;9.10;82.50
21493;DHT22;10908;50.690;4.400;2023-12-14T12:43:10;9.20;82.70
21493;DHT22;10908;50.690;4.400;2023-12-14T12:45:37;9.20;82.60
21493;DHT22;10908;50.690;4.400;2023-12-14T12:48:03;9.30;82.40
21493;DHT22;10908;50.690;4.400;2023-12-14T12:50:30;9.30;82.50
21493;DHT22;10908;50.690;4.400;2023-12-14T12:52:55;9.40;82.30
21493;DHT22;10908;50.690;4.400;2023-12-14T12:55:21;9.40;81.90
21493;DHT22;10908;50.690;4.400;2023-12-14T12:57:48;9.30;82.00
21493;DHT22;10908;50.690;4.400;2023-12-14T13:00:14;9.30;81.80
21493;DHT22;10908;50.690;4.400;2023-12-14T13:02:41;9.30;81.60
21493;DHT22;10908;50.690;4.400;2023-12-14T13:05:08;9.40;81.60
21493;DHT22;10908;50.690;4.400;2023-12-14T13:07:34;9.50;81.20
21493;DHT22;10908;50.690;4.400;2023-12-14T13:10:00;9.50;81.20
21493;DHT22;10908;50.690;4.400;2023-12-14T13:12:26;9.60;81.20
21493;DHT22;10908;50.690;4.400;2023-12-14T13:14:52;9.60;80.80
21493;DHT22;10908;50.690;4.400;2023-12-14T13:17:17;9.50;80.90
21493;DHT22;10908;50.690;4.400;2023-12-14T13:19:44;9.60;81.20
21493;DHT22;10908;50.690;4.400;2023-12-14T13:22:10;9.60;80.80
21493;DHT22;10908;50.690;4.400;2023-12-14T13:24:39;9.50;80.80
21493;DHT22;10908;50.690;4.400;2023-12-14T13:27:05;9.60;80.50
21493;DHT22;10908;50.690;4.400;2023-12-14T13:29:31;9.50;80.50
21493;DHT22;10908;50.690;4.400;2023-12-14T13:31:58;9.40;80.90
21493;DHT22;10908;50.690;4.400;2023-12-14T13:34:25;9.50;80.90
21493;DHT22;10908;50.690;4.400;2023-12-14T13:36:50;9.40;80.80
21493;DHT22;10908;50.690;4.400;2023-12-14T13:39:16;9.60;80.90
21493;DHT22;10908;50.690;4.400;2023-12-14T13:41:42;9.50;80.50
21493;DHT22;10908;50.690;4.400;2023-12-14T13:44:08;9.60;80.60
21493;DHT22;10908;50.690;4.400;2023-12-14T13:46:34;9.50;80.50
21493;DHT22;10908;50.690;4.400;2023-12-14T13:49:00;9.40;80.90
21493;DHT22;10908;50.690;4.400;2023-12-14T13:51:27;9.40;81.20
21493;DHT22;10908;50.690;4.400;2023-12-14T13:53:53;9.50;80.70
21493;DHT22;10908;50.690;4.400;2023-12-14T13:56:19;9.50;80.70
21493;DHT22;10908;50.690;4.400;2023-12-14T13:58:44;9.50;81.00
21493;DHT22;10908;50.690;4.400;2023-12-14T14:01:10;9.40;80.70
21493;DHT22;10908;50.690;4.400;2023-12-14T14:03:36;9.30;80.80
21493;DHT22;10908;50.690;4.400;2023-12-14T14:06:03;9.30;81.10
21493;DHT22;10908;50.690;4.400;2023-12-14T14:08:29;9.30;81.40
21493;DHT22;10908;50.690;4.400;2023-12-14T14:10:57;9.40;81.70
21493;DHT22;10908;50.690;4.400;2023-12-14T14:13:23;9.30;81.70
21493;DHT22;10908;50.690;4.400;2023-12-14T14:15:48;9.40;81.30
21493;DHT22;10908;50.690;4.400;2023-12-14T14:18:14;9.40;81.50
21493;DHT22;10908;50.690;4.400;2023-12-14T14:20:40;9.30;81.60
21493;DHT22;10908;50.690;4.400;2023-12-14T14:23:05;9.40;81.50
21493;DHT22;10908;50.690;4.400;2023-12-14T14:25:31;9.30;81.70
21493;DHT22;10908;50.690;4.400;2023-12-14T14:27:56;9.30;81.80
21493;DHT22;10908;50.690;4.400;2023-12-14T14:30:24;9.40;81.90
21493;DHT22;10908;50.690;4.400;2023-12-14T14:32:49;9.50;81.70
21493;DHT22;10908;50.690;4.400;2023-12-14T14:35:16;9.40;81.60
21493;DHT22;10908;50.690;4.400;2023-12-14T14:37:42;9.60;81.50
21493;DHT22;10908;50.690;4.400;2023-12-14T14:40:14;9.60;81.40
21493;DHT22;10908;50.690;4.400;2023-12-14T14:42:40;9.50;81.30
21493;DHT22;10908;50.690;4.400;2023-12-14T14:45:07;9.50;81.40
21493;DHT22;10908;50.690;4.400;2023-12-14T14:47:33;9.50;81.70
21493;DHT22;10908;50.690;4.400;2023-12-14T14:50:00;9.60;81.60
21493;DHT22;10908;50.690;4.400;2023-12-14T14:52:30;9.40;81.30
21493;DHT22;10908;50.690;4.400;2023-12-14T14:54:55;9.50;81.50
21493;DHT22;10908;50.690;4.400;2023-12-14T14:57:21;9.30;81.40
21493;DHT22;10908;50.690;4.400;2023-12-14T14:59:47;9.30;81.80
21493;DHT22;10908;50.690;4.400;2023-12-14T15:02:12;9.40;81.70
21493;DHT22;10908;50.690;4.400;2023-12-14T15:04:38;9.30;81.60
21493;DHT22;10908;50.690;4.400;2023-12-14T15:07:04;9.30;81.90
21493;DHT22;10908;50.690;4.400;2023-12-14T15:09:29;9.20;81.80
21493;DHT22;10908;50.690;4.400;2023-12-14T15:11:55;9.20;82.10
21493;DHT22;10908;50.690;4.400;2023-12-14T15:14:21;9.20;82.20
21493;DHT22;10908;50.690;4.400;2023-12-14T15:16:46;9.20;82.40
21493;DHT22;10908;50.690;4.400;2023-12-14T15:19:12;9.20;82.50
21493;DHT22;10908;50.690;4.400;2023-12-14T15:21:38;9.10;82.50
21493;DHT22;10908;50.690;4.400;2023-12-14T15:24:04;9.20;82.70
21493;DHT22;10908;50.690;4.400;2023-12-14T15:26:30;9.20;82.60
21493;DHT22;10908;50.690;4.400;2023-12-14T15:28:58;9.30;82.30
21493;DHT22;10908;50.690;4.400;2023-12-14T15:31:24;9.20;82.20
21493;DHT22;10908;50.690;4.400;2023-12-14T15:33:50;9.20;82.00
21493;DHT22;10908;50.690;4.400;2023-12-14T15:36:15;9.10;81.90
21493;DHT22;10908;50.690;4.400;2023-12-14T15:38:41;9.00;81.90
21493;DHT22;10908;50.690;4.400;2023-12-14T15:43:13;8.90;81.90
21493;DHT22;10908;50.690;4.400;2023-12-14T15:45:40;9.00;81.80
21493;DHT22;10908;50.690;4.400;2023-12-14T15:48:05;8.90;81.70